sensor_id;sensor_type;location;lat;lon;timestamp;pressure;altitude;pressure_sealevel;temperature;humidity
55317;BME280;41178;48.956;8.130;2023-04-09T00:02:12;100190.69;;;12.86;42.85
55317;BME280;41178;48.956;8.130;2023-04-09T00:07:14;100163.00;;;12.49;43.47
55317;BME280;41178;48.956;8.130;2023-04-09T00:12:15;100189.66;;;12.87;43.47
55317;BME280;41178;48.956;8.130;2023-04-09T00:17:17;100163.84;;;12.05;44.41
55317;BME280;41178;48.956;8.130;2023-04-09T00:22:19;100162.44;;;11.94;44.42
55317;BME280;41178;48.956;8.130;2023-04-09T00:27:20;100154.75;;;11.91;44.38
55317;BME280;41178;48.956;8.130;2023-04-09T00:32:22;100069.19;;;10.98;45.25
55317;BME280;41178;48.956;8.130;2023-04-09T00:37:23;100152.28;;;11.74;44.63
55317;BME280;41178;48.956;8.130;2023-04-09T00:42:25;100189.38;;;12.97;43.10
55317;BME280;41178;48.956;8.130;2023-04-09T00:47:28;100168.81;;;11.93;44.33
55317;BME280;41178;48.956;8.130;2023-04-09T00:52:31;100200.75;;;12.62;43.72
55317;BME280;41178;48.956;8.130;2023-04-09T00:57:33;100193.63;;;12.54;44.17
55317;BME280;41178;48.956;8.130;2023-04-09T01:02:35;100189.66;;;12.87;43.39
55317;BME280;41178;48.956;8.130;2023-04-09T01:08:17;100107.34;;;10.77;46.64
55317;BME280;41178;48.956;8.130;2023-04-09T01:13:29;100202.66;;;11.79;45.33
55317;BME280;41178;48.956;8.130;2023-04-09T01:19:08;100204.28;;;12.03;44.64
55317;BME280;41178;48.956;8.130;2023-04-09T01:29:44;100200.59;;;11.81;45.08
55317;BME280;41178;48.956;8.130;2023-04-09T01:34:47;100172.19;;;11.34;45.02
55317;BME280;41178;48.956;8.130;2023-04-09T01:39:49;100120.53;;;10.16;47.53
55317;BME280;41178;48.956;8.130;2023-04-09T01:44:52;100220.81;;;12.07;45.08
55317;BME280;41178;48.956;8.130;2023-04-09T01:49:54;100220.69;;;11.62;45.15
55317;BME280;41178;48.956;8.130;2023-04-09T01:54:55;100228.16;;;12.58;43.75
55317;BME280;41178;48.956;8.130;2023-04-09T01:59:58;100126.25;;;10.05;47.26
55317;BME280;41178;48.956;8.130;2023-04-09T02:05:03;100180.00;;;10.58;47.22
55317;BME280;41178;48.956;8.130;2023-04-09T02:10:08;100152.59;;;10.24;46.67
55317;BME280;41178;48.956;8.130;2023-04-09T02:15:11;100240.84;;;11.96;44.76
55317;BME280;41178;48.956;8.130;2023-04-09T02:20:17;100220.34;;;10.96;46.44
55317;BME280;41178;48.956;8.130;2023-04-09T02:25:21;100219.16;;;11.21;45.74
55317;BME280;41178;48.956;8.130;2023-04-09T02:30:23;100232.03;;;11.26;45.88
55317;BME280;41178;48.956;8.130;2023-04-09T02:35:24;100226.28;;;12.13;44.58
55317;BME280;41178;48.956;8.130;2023-04-09T02:40:26;100097.50;;;9.99;46.73
55317;BME280;41178;48.956;8.130;2023-04-09T02:45:28;100178.75;;;10.45;46.91
55317;BME280;41178;48.956;8.130;2023-04-09T02:50:30;100242.66;;;11.42;45.25
55317;BME280;41178;48.956;8.130;2023-04-09T02:55:31;100194.31;;;10.42;46.38
55317;BME280;41178;48.956;8.130;2023-04-09T03:00:33;100099.16;;;9.44;48.32
55317;BME280;41178;48.956;8.130;2023-04-09T03:05:35;100245.97;;;11.44;45.13
55317;BME280;41178;48.956;8.130;2023-04-09T03:10:37;100247.16;;;11.88;44.88
55317;BME280;41178;48.956;8.130;2023-04-09T03:15:38;100226.03;;;11.70;44.29
55317;BME280;41178;48.956;8.130;2023-04-09T03:20:40;100244.41;;;11.27;45.49
55317;BME280;41178;48.956;8.130;2023-04-09T03:25:41;100225.03;;;10.94;45.40
55317;BME280;41178;48.956;8.130;2023-04-09T03:30:43;100217.06;;;10.85;45.31
55317;BME280;41178;48.956;8.130;2023-04-09T03:35:45;100250.38;;;11.37;45.05
55317;BME280;41178;48.956;8.130;2023-04-09T03:40:46;100209.41;;;10.66;45.88
55317;BME280;41178;48.956;8.130;2023-04-09T03:45:48;100114.34;;;9.27;48.07
55317;BME280;41178;48.956;8.130;2023-04-09T03:50:50;100162.41;;;9.51;47.43
55317;BME280;41178;48.956;8.130;2023-04-09T03:55:53;100236.47;;;10.31;46.67
55317;BME280;41178;48.956;8.130;2023-04-09T04:00:55;100186.59;;;9.50;47.53
55317;BME280;41178;48.956;8.130;2023-04-09T04:06:01;100212.47;;;9.90;46.02
55317;BME280;41178;48.956;8.130;2023-04-09T04:11:03;100156.41;;;9.08;47.26
55317;BME280;41178;48.956;8.130;2023-04-09T04:16:07;100194.81;;;9.32;47.01
55317;BME280;41178;48.956;8.130;2023-04-09T04:21:16;100252.53;;;10.23;45.85
55317;BME280;41178;48.956;8.130;2023-04-09T04:26:17;100282.97;;;10.86;45.74
55317;BME280;41178;48.956;8.130;2023-04-09T04:31:19;100279.50;;;10.78;45.04
55317;BME280;41178;48.956;8.130;2023-04-09T04:36:21;100234.53;;;9.76;46.56
55317;BME280;41178;48.956;8.130;2023-04-09T04:41:22;100255.91;;;10.09;46.30
55317;BME280;41178;48.956;8.130;2023-04-09T04:46:24;100278.47;;;10.23;46.05
55317;BME280;41178;48.956;8.130;2023-04-09T04:51:25;100269.59;;;10.22;45.93
55317;BME280;41178;48.956;8.130;2023-04-09T04:56:28;100283.75;;;10.39;45.39
55317;BME280;41178;48.956;8.130;2023-04-09T05:01:29;100298.75;;;10.65;45.21
55317;BME280;41178;48.956;8.130;2023-04-09T05:06:31;100286.84;;;10.03;46.47
55317;BME280;41178;48.956;8.130;2023-04-09T05:11:33;100305.59;;;10.76;45.44
55317;BME280;41178;48.956;8.130;2023-04-09T05:16:35;100278.31;;;9.91;46.63
55317;BME280;41178;48.956;8.130;2023-04-09T05:21:37;100320.84;;;10.75;45.21
55317;BME280;41178;48.956;8.130;2023-04-09T05:26:38;100307.44;;;10.83;45.00
55317;BME280;41178;48.956;8.130;2023-04-09T05:31:40;100269.97;;;9.86;45.91
55317;BME280;41178;48.956;8.130;2023-04-09T05:36:43;100287.16;;;9.84;46.59
55317;BME280;41178;48.956;8.130;2023-04-09T05:41:45;100180.59;;;8.64;47.91
55317;BME280;41178;48.956;8.130;2023-04-09T05:46:46;100319.56;;;10.22;46.51
55317;BME280;41178;48.956;8.130;2023-04-09T05:51:49;100303.47;;;10.55;45.30
55317;BME280;41178;48.956;8.130;2023-04-09T05:56:51;100313.06;;;10.08;46.83
55317;BME280;41178;48.956;8.130;2023-04-09T06:01:52;100333.47;;;10.98;46.48
55317;BME280;41178;48.956;8.130;2023-04-09T06:06:54;100315.91;;;9.90;47.46
55317;BME280;41178;48.956;8.130;2023-04-09T06:11:56;100340.72;;;10.73;46.44
55317;BME280;41178;48.956;8.130;2023-04-09T06:16:58;100354.44;;;10.78;45.93
55317;BME280;41178;48.956;8.130;2023-04-09T06:22:00;100328.91;;;10.42;46.22
55317;BME280;41178;48.956;8.130;2023-04-09T06:27:01;100361.16;;;10.65;46.34
55317;BME280;41178;48.956;8.130;2023-04-09T06:32:04;100371.09;;;12.22;44.35
55317;BME280;41178;48.956;8.130;2023-04-09T06:37:06;100372.00;;;11.59;44.80
55317;BME280;41178;48.956;8.130;2023-04-09T06:42:08;100361.16;;;11.53;45.00
55317;BME280;41178;48.956;8.130;2023-04-09T06:47:09;100360.66;;;11.18;45.34
55317;BME280;41178;48.956;8.130;2023-04-09T06:52:11;100321.41;;;10.29;46.66
55317;BME280;41178;48.956;8.130;2023-04-09T06:57:13;100377.63;;;11.96;45.06
55317;BME280;41178;48.956;8.130;2023-04-09T07:02:14;100314.03;;;10.40;45.97
55317;BME280;41178;48.956;8.130;2023-04-09T07:07:16;100371.44;;;11.01;45.78
55317;BME280;41178;48.956;8.130;2023-04-09T07:12:32;100364.66;;;10.66;45.95
55317;BME280;41178;48.956;8.130;2023-04-09T07:17:34;100359.03;;;11.09;45.06
55317;BME280;41178;48.956;8.130;2023-04-09T07:22:36;100388.84;;;12.23;43.82
55317;BME280;41178;48.956;8.130;2023-04-09T07:27:38;100361.06;;;11.69;45.06
55317;BME280;41178;48.956;8.130;2023-04-09T07:32:40;100373.13;;;11.02;46.08
55317;BME280;41178;48.956;8.130;2023-04-09T07:37:41;100407.69;;;11.91;45.18
55317;BME280;41178;48.956;8.130;2023-04-09T07:42:43;100368.16;;;10.83;45.97
55317;BME280;41178;48.956;8.130;2023-04-09T07:47:45;100364.75;;;11.05;45.70
55317;BME280;41178;48.956;8.130;2023-04-09T07:52:46;100407.09;;;11.41;45.21
55317;BME280;41178;48.956;8.130;2023-04-09T07:57:48;100387.03;;;11.69;45.13
55317;BME280;41178;48.956;8.130;2023-04-09T08:02:51;100426.00;;;12.87;42.67
55317;BME280;41178;48.956;8.130;2023-04-09T08:07:53;100406.25;;;12.04;45.04
55317;BME280;41178;48.956;8.130;2023-04-09T08:12:55;100420.47;;;12.88;44.02
55317;BME280;41178;48.956;8.130;2023-04-09T08:17:56;100445.81;;;14.12;42.32
55317;BME280;41178;48.956;8.130;2023-04-09T08:22:58;100388.94;;;13.27;42.91
55317;BME280;41178;48.956;8.130;2023-04-09T08:28:00;100377.84;;;13.66;41.74
55317;BME280;41178;48.956;8.130;2023-04-09T08:33:01;100369.28;;;12.37;43.75
55317;BME280;41178;48.956;8.130;2023-04-09T08:38:03;100388.31;;;12.80;43.05
55317;BME280;41178;48.956;8.130;2023-04-09T08:43:06;100400.81;;;13.33;42.58
55317;BME280;41178;48.956;8.130;2023-04-09T08:48:11;100398.31;;;12.71;43.09
55317;BME280;41178;48.956;8.130;2023-04-09T08:53:14;100344.25;;;12.22;43.17
55317;BME280;41178;48.956;8.130;2023-04-09T08:58:17;100392.38;;;13.87;41.76
55317;BME280;41178;48.956;8.130;2023-04-09T09:03:19;100406.91;;;14.36;42.34
55317;BME280;41178;48.956;8.130;2023-04-09T09:08:24;100328.03;;;12.53;42.12
55317;BME280;41178;48.956;8.130;2023-04-09T09:13:27;100369.59;;;13.46;41.45
55317;BME280;41178;48.956;8.130;2023-04-09T09:18:42;100347.44;;;12.40;39.57
55317;BME280;41178;48.956;8.130;2023-04-09T09:23:44;100343.34;;;12.82;38.36
55317;BME280;41178;48.956;8.130;2023-04-09T09:28:49;100380.31;;;14.04;39.17
55317;BME280;41178;48.956;8.130;2023-04-09T09:33:52;100295.91;;;12.89;38.60
55317;BME280;41178;48.956;8.130;2023-04-09T09:38:55;100327.38;;;14.68;36.36
55317;BME280;41178;48.956;8.130;2023-04-09T09:43:57;100297.03;;;13.32;37.75
55317;BME280;41178;48.956;8.130;2023-04-09T09:48:59;100361.25;;;13.41;38.27
55317;BME280;41178;48.956;8.130;2023-04-09T09:54:01;100306.53;;;13.92;39.21
55317;BME280;41178;48.956;8.130;2023-04-09T09:59:13;100326.56;;;14.68;36.87
55317;BME280;41178;48.956;8.130;2023-04-09T10:04:17;100301.44;;;14.26;39.24
55317;BME280;41178;48.956;8.130;2023-04-09T10:09:20;100330.13;;;13.97;38.32
55317;BME280;41178;48.956;8.130;2023-04-09T10:14:24;100295.22;;;13.02;38.24
55317;BME280;41178;48.956;8.130;2023-04-09T10:19:28;100334.06;;;12.85;36.30
55317;BME280;41178;48.956;8.130;2023-04-09T10:24:33;100300.72;;;12.11;35.24
55317;BME280;41178;48.956;8.130;2023-04-09T10:29:44;100377.50;;;13.33;34.76
55317;BME280;41178;48.956;8.130;2023-04-09T10:34:46;100344.25;;;13.04;35.24
55317;BME280;41178;48.956;8.130;2023-04-09T10:39:50;100318.75;;;14.16;34.48
55317;BME280;41178;48.956;8.130;2023-04-09T10:55:35;100289.25;;;14.30;36.18
55317;BME280;41178;48.956;8.130;2023-04-09T11:06:35;100331.63;;;11.84;39.48
55317;BME280;41178;48.956;8.130;2023-04-09T11:11:37;100343.75;;;12.03;38.25
55317;BME280;41178;48.956;8.130;2023-04-09T11:16:39;100315.66;;;11.91;38.04
55317;BME280;41178;48.956;8.130;2023-04-09T11:21:41;100339.09;;;13.24;36.51
55317;BME280;41178;48.956;8.130;2023-04-09T11:26:47;100298.91;;;13.53;36.56
55317;BME280;41178;48.956;8.130;2023-04-09T11:31:49;100295.97;;;12.36;36.55
55317;BME280;41178;48.956;8.130;2023-04-09T11:36:51;100320.16;;;13.69;36.19
55317;BME280;41178;48.956;8.130;2023-04-09T11:41:53;100303.34;;;13.60;36.75
55317;BME280;41178;48.956;8.130;2023-04-09T11:46:56;100282.06;;;13.44;36.46
55317;BME280;41178;48.956;8.130;2023-04-09T11:51:57;100296.66;;;13.99;36.02
55317;BME280;41178;48.956;8.130;2023-04-09T11:57:04;100278.31;;;14.38;35.72
55317;BME280;41178;48.956;8.130;2023-04-09T12:02:06;100243.16;;;14.46;35.90
55317;BME280;41178;48.956;8.130;2023-04-09T12:07:08;100275.94;;;13.72;35.20
55317;BME280;41178;48.956;8.130;2023-04-09T12:12:10;100192.34;;;12.87;35.90
55317;BME280;41178;48.956;8.130;2023-04-09T12:17:12;100244.25;;;14.58;35.47
55317;BME280;41178;48.956;8.130;2023-04-09T12:22:13;100259.91;;;14.42;35.75
55317;BME280;41178;48.956;8.130;2023-04-09T12:27:15;100233.44;;;13.60;35.68
55317;BME280;41178;48.956;8.130;2023-04-09T12:32:17;100194.88;;;14.93;35.20
55317;BME280;41178;48.956;8.130;2023-04-09T12:37:19;100217.06;;;14.12;35.16
55317;BME280;41178;48.956;8.130;2023-04-09T12:42:20;100236.25;;;14.78;34.60
55317;BME280;41178;48.956;8.130;2023-04-09T12:47:22;100235.16;;;13.96;36.08
55317;BME280;41178;48.956;8.130;2023-04-09T12:52:24;100202.69;;;15.63;34.02
55317;BME280;41178;48.956;8.130;2023-04-09T12:57:26;100150.97;;;15.06;34.33
55317;BME280;41178;48.956;8.130;2023-04-09T13:02:27;100174.59;;;15.04;33.26
55317;BME280;41178;48.956;8.130;2023-04-09T13:07:30;100177.50;;;14.47;34.30
55317;BME280;41178;48.956;8.130;2023-04-09T13:12:32;100212.31;;;15.04;33.95
55317;BME280;41178;48.956;8.130;2023-04-09T13:17:33;100158.47;;;15.24;33.44
55317;BME280;41178;48.956;8.130;2023-04-09T13:22:35;100169.75;;;14.24;34.01
55317;BME280;41178;48.956;8.130;2023-04-09T13:27:36;100179.69;;;14.30;33.75
55317;BME280;41178;48.956;8.130;2023-04-09T13:32:38;100175.44;;;15.11;33.89
55317;BME280;41178;48.956;8.130;2023-04-09T13:37:40;100122.03;;;14.53;34.26
55317;BME280;41178;48.956;8.130;2023-04-09T13:42:42;100107.81;;;14.86;34.73
55317;BME280;41178;48.956;8.130;2023-04-09T13:47:43;100133.72;;;15.87;33.87
55317;BME280;41178;48.956;8.130;2023-04-09T13:52:45;100083.78;;;15.31;34.46
55317;BME280;41178;48.956;8.130;2023-04-09T13:57:47;100137.94;;;14.41;33.34
55317;BME280;41178;48.956;8.130;2023-04-09T14:02:48;100129.50;;;14.64;32.87
55317;BME280;41178;48.956;8.130;2023-04-09T14:07:50;100149.50;;;14.97;33.18
55317;BME280;41178;48.956;8.130;2023-04-09T14:12:52;100132.13;;;15.59;31.96
55317;BME280;41178;48.956;8.130;2023-04-09T14:17:54;100090.91;;;16.04;32.03
55317;BME280;41178;48.956;8.130;2023-04-09T14:22:56;100034.00;;;13.98;32.88
55317;BME280;41178;48.956;8.130;2023-04-09T14:27:57;100043.56;;;14.96;33.15
55317;BME280;41178;48.956;8.130;2023-04-09T14:33:00;100041.03;;;13.99;33.88
55317;BME280;41178;48.956;8.130;2023-04-09T14:38:01;100082.13;;;14.83;32.99
55317;BME280;41178;48.956;8.130;2023-04-09T14:43:04;100073.22;;;15.16;32.30
55317;BME280;41178;48.956;8.130;2023-04-09T14:48:06;100069.50;;;15.04;32.62
55317;BME280;41178;48.956;8.130;2023-04-09T14:53:08;100053.19;;;15.91;33.33
55317;BME280;41178;48.956;8.130;2023-04-09T14:58:10;100065.13;;;15.29;32.81
55317;BME280;41178;48.956;8.130;2023-04-09T15:03:12;100062.44;;;15.16;33.04
55317;BME280;41178;48.956;8.130;2023-04-09T15:08:14;100032.38;;;15.06;32.67
55317;BME280;41178;48.956;8.130;2023-04-09T15:13:16;100021.06;;;16.21;31.46
55317;BME280;41178;48.956;8.130;2023-04-09T15:18:17;100018.00;;;15.52;32.04
55317;BME280;41178;48.956;8.130;2023-04-09T15:23:21;100039.91;;;15.82;33.03
55317;BME280;41178;48.956;8.130;2023-04-09T15:28:23;99989.44;;;15.31;31.81
55317;BME280;41178;48.956;8.130;2023-04-09T15:33:25;99963.59;;;17.03;30.60
55317;BME280;41178;48.956;8.130;2023-04-09T15:38:28;99979.06;;;16.64;31.36
55317;BME280;41178;48.956;8.130;2023-04-09T15:43:30;99987.88;;;16.14;31.88
55317;BME280;41178;48.956;8.130;2023-04-09T15:48:32;99953.00;;;16.12;30.80
55317;BME280;41178;48.956;8.130;2023-04-09T15:53:33;99965.56;;;15.35;32.45
55317;BME280;41178;48.956;8.130;2023-04-09T15:58:35;99933.47;;;15.13;32.83
55317;BME280;41178;48.956;8.130;2023-04-09T16:03:37;99950.06;;;15.17;32.07
55317;BME280;41178;48.956;8.130;2023-04-09T16:08:42;99952.97;;;16.51;31.09
55317;BME280;41178;48.956;8.130;2023-04-09T16:13:43;99929.28;;;16.53;30.92
55317;BME280;41178;48.956;8.130;2023-04-09T16:18:45;99962.31;;;16.23;31.39
55317;BME280;41178;48.956;8.130;2023-04-09T16:23:47;99967.41;;;16.88;30.61
55317;BME280;41178;48.956;8.130;2023-04-09T16:28:48;99919.63;;;15.68;31.24
55317;BME280;41178;48.956;8.130;2023-04-09T16:33:50;99920.41;;;15.75;31.32
55317;BME280;41178;48.956;8.130;2023-04-09T16:38:52;99918.31;;;16.16;31.58
55317;BME280;41178;48.956;8.130;2023-04-09T16:43:54;99934.38;;;16.04;31.73
55317;BME280;41178;48.956;8.130;2023-04-09T16:48:55;99913.97;;;17.83;30.08
55317;BME280;41178;48.956;8.130;2023-04-09T16:53:57;99874.03;;;15.60;31.48
55317;BME280;41178;48.956;8.130;2023-04-09T16:58:59;99875.91;;;15.59;33.00
55317;BME280;41178;48.956;8.130;2023-04-09T17:04:00;99895.72;;;15.78;31.73
55317;BME280;41178;48.956;8.130;2023-04-09T17:09:03;99901.47;;;15.88;31.89
55317;BME280;41178;48.956;8.130;2023-04-09T17:14:06;99865.53;;;16.20;31.41
55317;BME280;41178;48.956;8.130;2023-04-09T17:19:09;99882.09;;;15.98;31.17
55317;BME280;41178;48.956;8.130;2023-04-09T17:24:11;99883.19;;;17.47;30.48
55317;BME280;41178;48.956;8.130;2023-04-09T17:29:13;99871.59;;;17.09;30.86
55317;BME280;41178;48.956;8.130;2023-04-09T17:34:14;99894.84;;;16.67;31.29
55317;BME280;41178;48.956;8.130;2023-04-09T17:39:16;99889.28;;;16.11;31.71
55317;BME280;41178;48.956;8.130;2023-04-09T17:44:18;99883.47;;;16.65;30.70
55317;BME280;41178;48.956;8.130;2023-04-09T17:49:20;99904.84;;;16.41;31.27
55317;BME280;41178;48.956;8.130;2023-04-09T17:54:22;99904.53;;;16.24;31.37
55317;BME280;41178;48.956;8.130;2023-04-09T17:59:24;99917.22;;;16.23;31.53
55317;BME280;41178;48.956;8.130;2023-04-09T18:04:26;99915.41;;;15.79;32.29
55317;BME280;41178;48.956;8.130;2023-04-09T18:09:28;99900.81;;;15.48;31.96
55317;BME280;41178;48.956;8.130;2023-04-09T18:14:30;99930.47;;;15.55;31.86
55317;BME280;41178;48.956;8.130;2023-04-09T18:19:32;99931.13;;;15.37;32.01
55317;BME280;41178;48.956;8.130;2023-04-09T18:24:34;99929.50;;;16.19;31.24
55317;BME280;41178;48.956;8.130;2023-04-09T18:29:36;99931.50;;;15.99;31.37
55317;BME280;41178;48.956;8.130;2023-04-09T18:34:38;99937.69;;;15.67;31.90
55317;BME280;41178;48.956;8.130;2023-04-09T18:39:40;99930.75;;;15.20;32.44
55317;BME280;41178;48.956;8.130;2023-04-09T18:44:42;99934.56;;;14.78;32.65
55317;BME280;41178;48.956;8.130;2023-04-09T18:49:44;99925.47;;;14.59;33.19
55317;BME280;41178;48.956;8.130;2023-04-09T18:54:46;99965.44;;;14.83;32.53
55317;BME280;41178;48.956;8.130;2023-04-09T18:59:48;99962.31;;;14.79;32.23
55317;BME280;41178;48.956;8.130;2023-04-09T19:04:50;99992.75;;;15.20;32.01
55317;BME280;41178;48.956;8.130;2023-04-09T19:09:52;99999.44;;;14.84;32.92
55317;BME280;41178;48.956;8.130;2023-04-09T19:14:54;99979.13;;;14.88;32.69
55317;BME280;41178;48.956;8.130;2023-04-09T19:19:56;99962.94;;;14.41;32.95
55317;BME280;41178;48.956;8.130;2023-04-09T19:24:57;99949.22;;;13.61;34.09
55317;BME280;41178;48.956;8.130;2023-04-09T19:29:59;99993.66;;;14.05;33.57
55317;BME280;41178;48.956;8.130;2023-04-09T19:35:02;100019.47;;;14.34;32.86
55317;BME280;41178;48.956;8.130;2023-04-09T19:40:04;100030.06;;;14.69;33.00
55317;BME280;41178;48.956;8.130;2023-04-09T19:45:06;100001.13;;;14.03;33.63
55317;BME280;41178;48.956;8.130;2023-04-09T19:50:08;100026.03;;;14.25;33.33
55317;BME280;41178;48.956;8.130;2023-04-09T19:55:10;100021.97;;;14.43;32.97
55317;BME280;41178;48.956;8.130;2023-04-09T20:00:12;100039.84;;;15.10;32.42
55317;BME280;41178;48.956;8.130;2023-04-09T20:05:17;100034.56;;;14.35;33.15
55317;BME280;41178;48.956;8.130;2023-04-09T20:10:21;100036.44;;;14.35;33.54
55317;BME280;41178;48.956;8.130;2023-04-09T20:15:23;100000.84;;;13.43;34.04
55317;BME280;41178;48.956;8.130;2023-04-09T20:20:24;100029.59;;;13.84;33.98
55317;BME280;41178;48.956;8.130;2023-04-09T20:25:27;100020.75;;;13.48;34.71
55317;BME280;41178;48.956;8.130;2023-04-09T20:30:34;100018.53;;;13.31;34.81
55317;BME280;41178;48.956;8.130;2023-04-09T20:35:36;100002.03;;;12.84;35.40
55317;BME280;41178;48.956;8.130;2023-04-09T20:40:38;100053.53;;;13.72;34.63
55317;BME280;41178;48.956;8.130;2023-04-09T20:45:39;100051.28;;;13.76;34.14
55317;BME280;41178;48.956;8.130;2023-04-09T20:50:41;100040.84;;;13.03;35.21
55317;BME280;41178;48.956;8.130;2023-04-09T20:55:43;100055.38;;;13.65;35.06
55317;BME280;41178;48.956;8.130;2023-04-09T21:00:46;100046.88;;;12.83;35.61
55317;BME280;41178;48.956;8.130;2023-04-09T21:05:47;100060.88;;;13.00;35.38
55317;BME280;41178;48.956;8.130;2023-04-09T21:10:49;100057.41;;;13.06;34.80
55317;BME280;41178;48.956;8.130;2023-04-09T21:15:51;100056.00;;;12.89;35.39
55317;BME280;41178;48.956;8.130;2023-04-09T21:20:53;100061.97;;;12.84;35.54
55317;BME280;41178;48.956;8.130;2023-04-09T21:25:54;100041.50;;;12.62;35.74
55317;BME280;41178;48.956;8.130;2023-04-09T21:30:56;100064.56;;;13.49;35.16
55317;BME280;41178;48.956;8.130;2023-04-09T21:35:59;100046.00;;;12.76;36.09
55317;BME280;41178;48.956;8.130;2023-04-09T21:41:01;100055.34;;;13.08;35.36
55317;BME280;41178;48.956;8.130;2023-04-09T21:46:03;100041.41;;;13.20;35.57
55317;BME280;41178;48.956;8.130;2023-04-09T21:51:08;100028.75;;;12.64;36.07
55317;BME280;41178;48.956;8.130;2023-04-09T21:56:10;100034.69;;;13.09;35.78
55317;BME280;41178;48.956;8.130;2023-04-09T22:01:12;100031.00;;;13.80;34.82
55317;BME280;41178;48.956;8.130;2023-04-09T22:06:27;100023.59;;;13.82;34.83
55317;BME280;41178;48.956;8.130;2023-04-09T22:11:29;100005.59;;;14.37;34.53
55317;BME280;41178;48.956;8.130;2023-04-09T22:16:31;100010.41;;;13.24;35.33
55317;BME280;41178;48.956;8.130;2023-04-09T22:21:33;100002.94;;;13.47;35.36
55317;BME280;41178;48.956;8.130;2023-04-09T22:26:34;100011.44;;;13.51;34.95
55317;BME280;41178;48.956;8.130;2023-04-09T22:31:36;100056.78;;;13.61;35.32
55317;BME280;41178;48.956;8.130;2023-04-09T22:36:38;100018.69;;;12.94;35.84
55317;BME280;41178;48.956;8.130;2023-04-09T22:41:40;100044.28;;;13.88;34.48
55317;BME280;41178;48.956;8.130;2023-04-09T22:46:42;99960.81;;;12.05;36.75
55317;BME280;41178;48.956;8.130;2023-04-09T22:51:43;100039.47;;;13.70;35.49
55317;BME280;41178;48.956;8.130;2023-04-09T22:56:46;99989.47;;;12.84;35.44
55317;BME280;41178;48.956;8.130;2023-04-09T23:01:48;100015.75;;;14.49;34.42
55317;BME280;41178;48.956;8.130;2023-04-09T23:06:50;99998.38;;;12.63;36.10
55317;BME280;41178;48.956;8.130;2023-04-09T23:11:52;100028.94;;;12.62;36.14
55317;BME280;41178;48.956;8.130;2023-04-09T23:16:54;99964.88;;;10.90;38.44
55317;BME280;41178;48.956;8.130;2023-04-09T23:21:55;99996.38;;;11.18;37.91
55317;BME280;41178;48.956;8.130;2023-04-09T23:26:57;100065.59;;;12.18;36.60
55317;BME280;41178;48.956;8.130;2023-04-09T23:31:59;100049.72;;;12.02;37.30
55317;BME280;41178;48.956;8.130;2023-04-09T23:37:01;100040.03;;;11.86;37.06
55317;BME280;41178;48.956;8.130;2023-04-09T23:42:03;100032.03;;;11.93;37.01
55317;BME280;41178;48.956;8.130;2023-04-09T23:47:04;100018.97;;;11.83;36.97
55317;BME280;41178;48.956;8.130;2023-04-09T23:52:07;100007.75;;;11.50;37.36
55317;BME280;41178;48.956;8.130;2023-04-09T23:57:08;99910.44;;;10.13;39.74
